sensor_id;sensor_type;location;lat;lon;timestamp;P1;durP1;ratioP1;P2;durP2;ratioP2
64917;SDS011;52176;44.858;38.372;2022-09-02T00:03:42;20.10;;;11.80;;
64917;SDS011;52176;44.858;38.372;2022-09-02T00:06:08;16.88;;;11.60;;
64917;SDS011;52176;44.858;38.372;2022-09-02T00:08:35;25.00;;;12.10;;
64917;SDS011;52176;44.858;38.372;2022-09-02T00:11:01;19.08;;;12.07;;
64917;SDS011;52176;44.858;38.372;2022-09-02T00:13:30;17.60;;;12.45;;
64917;SDS011;52176;44.858;38.372;2022-09-02T00:15:58;17.27;;;12.35;;
64917;SDS011;52176;44.858;38.372;2022-09-02T00:18:24;22.85;;;12.60;;
64917;SDS011;52176;44.858;38.372;2022-09-02T00:20:51;17.63;;;12.35;;
64917;SDS011;52176;44.858;38.372;2022-09-02T00:23:18;25.35;;;12.15;;
64917;SDS011;52176;44.858;38.372;2022-09-02T00:25:44;21.95;;;11.70;;
64917;SDS011;52176;44.858;38.372;2022-09-02T00:28:11;16.73;;;12.30;;
64917;SDS011;52176;44.858;38.372;2022-09-02T00:30:39;20.73;;;12.23;;
64917;SDS011;52176;44.858;38.372;2022-09-02T00:33:06;18.77;;;12.43;;
64917;SDS011;52176;44.858;38.372;2022-09-02T00:35:34;20.05;;;11.68;;
64917;SDS011;52176;44.858;38.372;2022-09-02T00:38:01;20.08;;;11.80;;
64917;SDS011;52176;44.858;38.372;2022-09-02T00:40:27;20.48;;;11.77;;
64917;SDS011;52176;44.858;38.372;2022-09-02T00:42:53;17.73;;;11.75;;
64917;SDS011;52176;44.858;38.372;2022-09-02T00:45:20;25.15;;;12.00;;
64917;SDS011;52176;44.858;38.372;2022-09-02T00:47:47;15.48;;;11.40;;
64917;SDS011;52176;44.858;38.372;2022-09-02T00:50:17;20.02;;;11.73;;
64917;SDS011;52176;44.858;38.372;2022-09-02T00:52:50;19.40;;;12.32;;
64917;SDS011;52176;44.858;38.372;2022-09-02T00:55:25;18.65;;;11.60;;
64917;SDS011;52176;44.858;38.372;2022-09-02T00:57:58;19.90;;;11.98;;
64917;SDS011;52176;44.858;38.372;2022-09-02T01:00:29;16.25;;;11.55;;
64917;SDS011;52176;44.858;38.372;2022-09-02T01:03:00;19.38;;;11.85;;
64917;SDS011;52176;44.858;38.372;2022-09-02T01:05:29;23.90;;;12.40;;
64917;SDS011;52176;44.858;38.372;2022-09-02T01:07:59;18.23;;;12.68;;
64917;SDS011;52176;44.858;38.372;2022-09-02T01:10:26;21.25;;;12.20;;
64917;SDS011;52176;44.858;38.372;2022-09-02T01:12:56;23.83;;;12.43;;
64917;SDS011;52176;44.858;38.372;2022-09-02T01:15:24;19.02;;;12.48;;
64917;SDS011;52176;44.858;38.372;2022-09-02T01:17:52;19.10;;;12.27;;
64917;SDS011;52176;44.858;38.372;2022-09-02T01:20:20;18.48;;;12.32;;
64917;SDS011;52176;44.858;38.372;2022-09-02T01:22:50;17.30;;;12.32;;
64917;SDS011;52176;44.858;38.372;2022-09-02T01:25:19;21.15;;;12.70;;
64917;SDS011;52176;44.858;38.372;2022-09-02T01:27:47;18.58;;;12.18;;
64917;SDS011;52176;44.858;38.372;2022-09-02T01:30:16;18.50;;;12.55;;
64917;SDS011;52176;44.858;38.372;2022-09-02T01:32:45;20.95;;;12.02;;
64917;SDS011;52176;44.858;38.372;2022-09-02T01:35:13;18.45;;;12.02;;
64917;SDS011;52176;44.858;38.372;2022-09-02T01:37:40;20.58;;;11.15;;
64917;SDS011;52176;44.858;38.372;2022-09-02T01:40:08;17.30;;;11.00;;
64917;SDS011;52176;44.858;38.372;2022-09-02T01:42:36;20.75;;;11.70;;
64917;SDS011;52176;44.858;38.372;2022-09-02T01:45:04;17.27;;;10.82;;
64917;SDS011;52176;44.858;38.372;2022-09-02T01:47:33;15.52;;;11.00;;
64917;SDS011;52176;44.858;38.372;2022-09-02T01:50:01;15.23;;;11.40;;
64917;SDS011;52176;44.858;38.372;2022-09-02T01:52:29;23.23;;;12.02;;
64917;SDS011;52176;44.858;38.372;2022-09-02T01:54:56;18.75;;;11.80;;
64917;SDS011;52176;44.858;38.372;2022-09-02T01:57:22;19.02;;;11.98;;
64917;SDS011;52176;44.858;38.372;2022-09-02T01:59:50;20.05;;;11.40;;
64917;SDS011;52176;44.858;38.372;2022-09-02T02:02:17;17.27;;;10.82;;
64917;SDS011;52176;44.858;38.372;2022-09-02T02:04:45;14.82;;;10.25;;
64917;SDS011;52176;44.858;38.372;2022-09-02T02:07:12;22.70;;;11.70;;
64917;SDS011;52176;44.858;38.372;2022-09-02T02:09:40;21.20;;;10.80;;
64917;SDS011;52176;44.858;38.372;2022-09-02T02:12:11;21.88;;;11.27;;
64917;SDS011;52176;44.858;38.372;2022-09-02T02:14:37;19.80;;;12.60;;
64917;SDS011;52176;44.858;38.372;2022-09-02T02:17:03;20.80;;;12.35;;
64917;SDS011;52176;44.858;38.372;2022-09-02T02:19:29;21.88;;;11.60;;
64917;SDS011;52176;44.858;38.372;2022-09-02T02:21:56;23.67;;;12.38;;
64917;SDS011;52176;44.858;38.372;2022-09-02T02:24:22;19.20;;;12.73;;
64917;SDS011;52176;44.858;38.372;2022-09-02T02:26:48;23.40;;;12.63;;
64917;SDS011;52176;44.858;38.372;2022-09-02T02:29:17;23.05;;;12.48;;
64917;SDS011;52176;44.858;38.372;2022-09-02T02:31:44;25.02;;;13.57;;
64917;SDS011;52176;44.858;38.372;2022-09-02T02:34:10;18.20;;;12.75;;
64917;SDS011;52176;44.858;38.372;2022-09-02T02:36:37;17.38;;;12.50;;
64917;SDS011;52176;44.858;38.372;2022-09-02T02:39:05;24.05;;;12.48;;
64917;SDS011;52176;44.858;38.372;2022-09-02T02:41:34;19.00;;;12.43;;
64917;SDS011;52176;44.858;38.372;2022-09-02T02:44:01;21.73;;;13.20;;
64917;SDS011;52176;44.858;38.372;2022-09-02T02:46:28;18.42;;;12.40;;
64917;SDS011;52176;44.858;38.372;2022-09-02T02:48:59;37.22;;;13.82;;
64917;SDS011;52176;44.858;38.372;2022-09-02T02:51:26;19.15;;;13.30;;
64917;SDS011;52176;44.858;38.372;2022-09-02T02:53:53;24.00;;;13.27;;
64917;SDS011;52176;44.858;38.372;2022-09-02T02:56:20;19.30;;;12.98;;
64917;SDS011;52176;44.858;38.372;2022-09-02T02:58:48;21.77;;;12.60;;
64917;SDS011;52176;44.858;38.372;2022-09-02T03:01:15;19.52;;;12.32;;
64917;SDS011;52176;44.858;38.372;2022-09-02T03:03:42;30.50;;;13.25;;
64917;SDS011;52176;44.858;38.372;2022-09-02T03:06:09;20.63;;;13.05;;
64917;SDS011;52176;44.858;38.372;2022-09-02T03:08:36;19.52;;;12.93;;
64917;SDS011;52176;44.858;38.372;2022-09-02T03:11:03;22.50;;;12.88;;
64917;SDS011;52176;44.858;38.372;2022-09-02T03:13:33;21.83;;;13.10;;
64917;SDS011;52176;44.858;38.372;2022-09-02T03:16:00;23.83;;;12.50;;
64917;SDS011;52176;44.858;38.372;2022-09-02T03:18:30;21.05;;;12.52;;
64917;SDS011;52176;44.858;38.372;2022-09-02T03:20:57;16.25;;;12.93;;
64917;SDS011;52176;44.858;38.372;2022-09-02T03:23:24;20.80;;;13.27;;
64917;SDS011;52176;44.858;38.372;2022-09-02T03:25:50;16.55;;;12.50;;
64917;SDS011;52176;44.858;38.372;2022-09-02T03:28:30;19.08;;;12.40;;
64917;SDS011;52176;44.858;38.372;2022-09-02T03:30:59;19.63;;;12.88;;
64917;SDS011;52176;44.858;38.372;2022-09-02T03:33:26;23.33;;;13.15;;
64917;SDS011;52176;44.858;38.372;2022-09-02T03:35:53;23.35;;;12.00;;
64917;SDS011;52176;44.858;38.372;2022-09-02T03:38:19;26.77;;;12.20;;
64917;SDS011;52176;44.858;38.372;2022-09-02T03:40:45;21.17;;;11.85;;
64917;SDS011;52176;44.858;38.372;2022-09-02T03:43:12;23.20;;;12.88;;
64917;SDS011;52176;44.858;38.372;2022-09-02T03:45:40;20.35;;;12.13;;
64917;SDS011;52176;44.858;38.372;2022-09-02T03:48:10;22.90;;;11.88;;
64917;SDS011;52176;44.858;38.372;2022-09-02T03:50:39;17.35;;;11.70;;
64917;SDS011;52176;44.858;38.372;2022-09-02T03:53:12;18.33;;;11.60;;
64917;SDS011;52176;44.858;38.372;2022-09-02T03:55:38;18.65;;;12.52;;
64917;SDS011;52176;44.858;38.372;2022-09-02T03:58:05;18.30;;;11.38;;
64917;SDS011;52176;44.858;38.372;2022-09-02T04:00:34;26.35;;;12.02;;
64917;SDS011;52176;44.858;38.372;2022-09-02T04:03:03;17.92;;;11.65;;
64917;SDS011;52176;44.858;38.372;2022-09-02T04:05:31;21.95;;;11.82;;
64917;SDS011;52176;44.858;38.372;2022-09-02T04:07:59;23.92;;;11.75;;
64917;SDS011;52176;44.858;38.372;2022-09-02T04:10:26;22.05;;;12.27;;
64917;SDS011;52176;44.858;38.372;2022-09-02T04:12:53;19.48;;;11.63;;
64917;SDS011;52176;44.858;38.372;2022-09-02T04:15:19;15.55;;;11.52;;
64917;SDS011;52176;44.858;38.372;2022-09-02T04:17:48;16.58;;;10.75;;
64917;SDS011;52176;44.858;38.372;2022-09-02T04:20:17;18.30;;;9.52;;
64917;SDS011;52176;44.858;38.372;2022-09-02T04:22:43;18.05;;;10.05;;
64917;SDS011;52176;44.858;38.372;2022-09-02T04:25:09;14.30;;;9.40;;
64917;SDS011;52176;44.858;38.372;2022-09-02T04:27:36;16.85;;;9.40;;
64917;SDS011;52176;44.858;38.372;2022-09-02T04:30:04;18.63;;;9.90;;
64917;SDS011;52176;44.858;38.372;2022-09-02T04:32:33;17.92;;;9.52;;
64917;SDS011;52176;44.858;38.372;2022-09-02T04:35:02;13.50;;;8.88;;
64917;SDS011;52176;44.858;38.372;2022-09-02T04:37:29;14.38;;;8.90;;
64917;SDS011;52176;44.858;38.372;2022-09-02T04:39:59;17.08;;;8.45;;
64917;SDS011;52176;44.858;38.372;2022-09-02T04:42:25;16.17;;;8.63;;
64917;SDS011;52176;44.858;38.372;2022-09-02T04:44:53;11.40;;;8.07;;
64917;SDS011;52176;44.858;38.372;2022-09-02T04:47:21;16.80;;;7.65;;
64917;SDS011;52176;44.858;38.372;2022-09-02T04:49:52;19.20;;;7.20;;
64917;SDS011;52176;44.858;38.372;2022-09-02T04:52:18;19.80;;;6.50;;
64917;SDS011;52176;44.858;38.372;2022-09-02T04:54:46;10.20;;;5.82;;
64917;SDS011;52176;44.858;38.372;2022-09-02T05:02:08;16.20;;;7.28;;
64917;SDS011;52176;44.858;38.372;2022-09-02T05:04:35;8.77;;;5.60;;
64917;SDS011;52176;44.858;38.372;2022-09-02T05:36:55;18.58;;;6.20;;
64917;SDS011;52176;44.858;38.372;2022-09-02T05:39:24;17.00;;;5.93;;
64917;SDS011;52176;44.858;38.372;2022-09-02T05:46:43;10.27;;;5.57;;
64917;SDS011;52176;44.858;38.372;2022-09-02T05:49:09;13.50;;;5.50;;
64917;SDS011;52176;44.858;38.372;2022-09-02T05:51:48;10.63;;;5.95;;
64917;SDS011;52176;44.858;38.372;2022-09-02T05:54:20;10.93;;;5.68;;
64917;SDS011;52176;44.858;38.372;2022-09-02T06:14:08;10.83;;;6.13;;
64917;SDS011;52176;44.858;38.372;2022-09-02T06:16:37;10.55;;;5.63;;
64917;SDS011;52176;44.858;38.372;2022-09-02T06:19:06;13.40;;;5.68;;
64917;SDS011;52176;44.858;38.372;2022-09-02T06:21:34;10.65;;;5.90;;
64917;SDS011;52176;44.858;38.372;2022-09-02T06:24:03;11.20;;;5.72;;
64917;SDS011;52176;44.858;38.372;2022-09-02T06:41:17;11.25;;;5.55;;
64917;SDS011;52176;44.858;38.372;2022-09-02T06:43:49;13.15;;;5.75;;
64917;SDS011;52176;44.858;38.372;2022-09-02T06:46:21;10.77;;;4.87;;
64917;SDS011;52176;44.858;38.372;2022-09-02T06:51:23;9.07;;;4.32;;
64917;SDS011;52176;44.858;38.372;2022-09-02T07:01:28;11.05;;;5.00;;
64917;SDS011;52176;44.858;38.372;2022-09-02T07:03:55;27.58;;;13.48;;
64917;SDS011;52176;44.858;38.372;2022-09-02T07:06:45;13.55;;;5.40;;
64917;SDS011;52176;44.858;38.372;2022-09-02T07:09:15;9.85;;;4.50;;
64917;SDS011;52176;44.858;38.372;2022-09-02T07:11:48;10.77;;;4.80;;
64917;SDS011;52176;44.858;38.372;2022-09-02T07:14:16;8.77;;;4.55;;
64917;SDS011;52176;44.858;38.372;2022-09-02T07:16:50;8.45;;;4.43;;
64917;SDS011;52176;44.858;38.372;2022-09-02T07:19:18;12.18;;;4.28;;
64917;SDS011;52176;44.858;38.372;2022-09-02T07:24:11;9.60;;;5.10;;
64917;SDS011;52176;44.858;38.372;2022-09-02T07:26:40;16.80;;;4.80;;
64917;SDS011;52176;44.858;38.372;2022-09-02T07:29:08;7.60;;;4.40;;
64917;SDS011;52176;44.858;38.372;2022-09-02T07:46:16;10.15;;;4.20;;
64917;SDS011;52176;44.858;38.372;2022-09-02T07:48:42;8.35;;;3.95;;
64917;SDS011;52176;44.858;38.372;2022-09-02T08:48:01;9.05;;;3.97;;
64917;SDS011;52176;44.858;38.372;2022-09-02T08:50:32;7.57;;;3.90;;
64917;SDS011;52176;44.858;38.372;2022-09-02T08:53:03;8.02;;;3.67;;
64917;SDS011;52176;44.858;38.372;2022-09-02T08:55:38;11.43;;;4.10;;
64917;SDS011;52176;44.858;38.372;2022-09-02T08:58:11;12.23;;;3.80;;
64917;SDS011;52176;44.858;38.372;2022-09-02T09:00:43;11.63;;;4.03;;
64917;SDS011;52176;44.858;38.372;2022-09-02T09:05:55;7.95;;;3.28;;
64917;SDS011;52176;44.858;38.372;2022-09-02T09:11:22;8.50;;;3.83;;
64917;SDS011;52176;44.858;38.372;2022-09-02T09:14:16;5.88;;;3.60;;
64917;SDS011;52176;44.858;38.372;2022-09-02T09:16:58;6.57;;;3.13;;
64917;SDS011;52176;44.858;38.372;2022-09-02T09:19:42;6.53;;;3.30;;
64917;SDS011;52176;44.858;38.372;2022-09-02T09:22:20;7.00;;;3.60;;
64917;SDS011;52176;44.858;38.372;2022-09-02T09:24:57;7.60;;;3.55;;
64917;SDS011;52176;44.858;38.372;2022-09-02T09:27:24;10.15;;;4.32;;
64917;SDS011;52176;44.858;38.372;2022-09-02T09:29:50;11.68;;;3.72;;
64917;SDS011;52176;44.858;38.372;2022-09-02T09:32:30;10.07;;;3.80;;
64917;SDS011;52176;44.858;38.372;2022-09-02T09:35:01;20.38;;;4.15;;
64917;SDS011;52176;44.858;38.372;2022-09-02T09:37:42;7.97;;;3.35;;
64917;SDS011;52176;44.858;38.372;2022-09-02T09:42:45;11.77;;;3.47;;
64917;SDS011;52176;44.858;38.372;2022-09-02T09:45:20;15.23;;;3.50;;
64917;SDS011;52176;44.858;38.372;2022-09-02T09:50:35;9.88;;;3.83;;
64917;SDS011;52176;44.858;38.372;2022-09-02T09:53:14;8.95;;;3.40;;
64917;SDS011;52176;44.858;38.372;2022-09-02T09:55:55;9.70;;;3.90;;
64917;SDS011;52176;44.858;38.372;2022-09-02T09:58:22;9.00;;;3.40;;
64917;SDS011;52176;44.858;38.372;2022-09-02T10:00:55;10.35;;;3.58;;
64917;SDS011;52176;44.858;38.372;2022-09-02T10:03:27;8.48;;;3.30;;
64917;SDS011;52176;44.858;38.372;2022-09-02T10:05:56;6.18;;;3.15;;
64917;SDS011;52176;44.858;38.372;2022-09-02T10:08:25;10.13;;;3.63;;
64917;SDS011;52176;44.858;38.372;2022-09-02T10:11:05;7.15;;;3.80;;
64917;SDS011;52176;44.858;38.372;2022-09-02T10:17:14;7.65;;;3.28;;
64917;SDS011;52176;44.858;38.372;2022-09-02T10:24:28;7.93;;;3.25;;
64917;SDS011;52176;44.858;38.372;2022-09-02T10:27:36;7.82;;;3.58;;
64917;SDS011;52176;44.858;38.372;2022-09-02T10:30:21;7.40;;;3.33;;
64917;SDS011;52176;44.858;38.372;2022-09-02T10:32:53;4.78;;;3.17;;
64917;SDS011;52176;44.858;38.372;2022-09-02T10:35:27;11.55;;;3.15;;
64917;SDS011;52176;44.858;38.372;2022-09-02T15:06:45;13.85;;;3.30;;
64917;SDS011;52176;44.858;38.372;2022-09-02T15:09:12;6.85;;;3.72;;
64917;SDS011;52176;44.858;38.372;2022-09-02T15:11:44;10.05;;;2.85;;
64917;SDS011;52176;44.858;38.372;2022-09-02T15:14:13;6.40;;;2.90;;
64917;SDS011;52176;44.858;38.372;2022-09-02T15:16:39;11.23;;;2.83;;
64917;SDS011;52176;44.858;38.372;2022-09-02T15:19:05;8.73;;;3.17;;
64917;SDS011;52176;44.858;38.372;2022-09-02T15:21:31;16.85;;;3.35;;
64917;SDS011;52176;44.858;38.372;2022-09-02T15:53:38;13.23;;;3.00;;
64917;SDS011;52176;44.858;38.372;2022-09-02T15:56:04;10.13;;;2.95;;
64917;SDS011;52176;44.858;38.372;2022-09-02T15:58:40;15.25;;;2.80;;
64917;SDS011;52176;44.858;38.372;2022-09-02T16:01:06;11.13;;;4.35;;
64917;SDS011;52176;44.858;38.372;2022-09-02T16:03:31;10.73;;;3.47;;
64917;SDS011;52176;44.858;38.372;2022-09-02T16:06:01;10.07;;;3.33;;
64917;SDS011;52176;44.858;38.372;2022-09-02T16:08:28;15.15;;;3.70;;
64917;SDS011;52176;44.858;38.372;2022-09-02T16:10:54;15.02;;;3.30;;
64917;SDS011;52176;44.858;38.372;2022-09-02T16:13:20;17.63;;;3.53;;
64917;SDS011;52176;44.858;38.372;2022-09-02T16:18:12;10.57;;;4.13;;
64917;SDS011;52176;44.858;38.372;2022-09-02T16:30:22;17.27;;;3.30;;
64917;SDS011;52176;44.858;38.372;2022-09-02T16:32:48;11.77;;;3.65;;
64917;SDS011;52176;44.858;38.372;2022-09-02T16:35:17;6.72;;;3.25;;
64917;SDS011;52176;44.858;38.372;2022-09-02T16:37:43;9.40;;;3.72;;
64917;SDS011;52176;44.858;38.372;2022-09-02T16:40:09;17.77;;;5.03;;
64917;SDS011;52176;44.858;38.372;2022-09-02T16:42:35;21.98;;;6.38;;
64917;SDS011;52176;44.858;38.372;2022-09-02T16:45:01;19.77;;;6.80;;
64917;SDS011;52176;44.858;38.372;2022-09-02T18:52:55;22.52;;;5.43;;
64917;SDS011;52176;44.858;38.372;2022-09-02T19:06:00;25.83;;;8.43;;
64917;SDS011;52176;44.858;38.372;2022-09-02T19:12:29;20.90;;;6.80;;
64917;SDS011;52176;44.858;38.372;2022-09-02T19:18:52;19.58;;;7.30;;
64917;SDS011;52176;44.858;38.372;2022-09-02T21:06:25;23.30;;;8.85;;
64917;SDS011;52176;44.858;38.372;2022-09-02T21:52:44;9.80;;;4.82;;
64917;SDS011;52176;44.858;38.372;2022-09-02T22:10:25;8.73;;;4.88;;
64917;SDS011;52176;44.858;38.372;2022-09-02T22:23:43;10.35;;;5.18;;
64917;SDS011;52176;44.858;38.372;2022-09-02T22:43:29;11.63;;;5.07;;
64917;SDS011;52176;44.858;38.372;2022-09-02T22:53:51;10.15;;;5.50;;
64917;SDS011;52176;44.858;38.372;2022-09-02T23:00:12;8.45;;;5.47;;
64917;SDS011;52176;44.858;38.372;2022-09-02T23:06:34;11.85;;;5.25;;
64917;SDS011;52176;44.858;38.372;2022-09-02T23:29:42;11.95;;;5.10;;
